Date,TemperatureHighF,TemperatureAvgF,TemperatureLowF,DewpointHighF,DewpointAvgF,DewpointLowF,HumidityHigh,HumidityAvg,HumidityLow,PressureMaxIn,PressureMinIn,WindSpeedMaxMPH,WindSpeedAvgMPH,GustSpeedMaxMPH,PrecipitationSumIn
2013-1-1,27,13,5,-9,-18,-31,38,26,10,29.67,29.56,6,1,12,0.00
2013-1-2,36,19,4,4,-11,-24,39,28,10,29.62,29.46,10,2,17,0.00
2013-1-3,28,23,12,12,1,-8,53,38,21,29.70,29.49,10,4,20,0.00
2013-1-4,38,22,10,8,-3,-15,48,35,10,29.68,29.55,14,4,24,0.00
2013-1-5,38,29,16,24,13,2,64,52,28,29.64,29.34,13,3,25,0.02
2013-1-6,35,24,12,22,4,-5,59,42,19,29.74,29.33,11,3,19,0.00
2013-1-7,45,28,12,13,2,-11,52,37,10,29.72,29.49,12,4,23,0.00
2013-1-8,45,34,23,16,11,4,56,40,19,29.56,29.41,10,3,16,0.00
2013-1-9,50,36,23,16,6,-10,52,31,10,29.90,29.41,103,4,103,0.00
2013-1-10,49,34,23,33,11,-9,75,43,10,29.91,29.26,9,3,15,0.48
2013-1-11,52,47,40,45,40,33,86,77,59,29.26,29.07,11,4,17,0.39
2013-1-12,52,37,23,37,18,3,59,46,33,29.43,29.09,11,4,20,0.00
2013-1-13,23,18,9,11,-5,-14,59,37,20,29.67,29.30,8,3,15,0.00
2013-1-14,31,13,4,-9,-15,-26,48,30,10,29.86,29.65,5,1,8,0.00
2013-1-15,35,16,4,0,-12,-22,45,31,10,29.83,29.52,4,0,8,0.00
2013-1-16,35,25,9,15,-1,-16,50,34,12,29.53,29.25,14,3,26,0.00
2013-1-17,33,25,14,20,-7,-24,61,28,10,29.82,29.48,9,1,16,0.00
2013-1-18,45,32,13,13,5,-6,49,34,18,29.83,29.31,13,5,21,0.00
2013-1-19,51,41,21,20,9,-27,39,28,10,29.42,29.15,17,6,31,0.00
2013-1-20,21,15,9,-17,-24,-29,25,16,10,29.74,29.42,13,3,26,0.00
2013-1-21,17,10,0,-25,-29,-39,23,12,10,29.69,29.55,11,3,21,0.00
2013-1-22,15,6,-4,-26,-32,-40,32,16,10,29.80,29.68,8,3,15,0.00
2013-1-23,25,14,9,-5,-16,-30,40,24,12,29.80,29.51,8,3,18,0.00
2013-1-24,24,13,3,-23,-28,-34,23,14,10,30.04,29.74,8,2,12,0.00
2013-1-25,36,23,16,2,-10,-26,49,26,10,29.75,29.36,12,4,21,0.00
2013-1-26,33,20,9,-6,-15,-25,35,22,10,29.81,29.62,6,1,8,0.00
2013-1-27,36,29,23,28,10,-10,73,46,21,29.75,29.26,10,4,14,0.01
2013-1-28,51,43,36,40,33,25,85,71,40,29.36,29.16,8,2,13,0.14
2013-1-29,53,53,44,53,52,38,99,98,81,29.17,28.84,8,1,14,0.01
2013-1-30,53,21,0,53,53,53,99,39,99,29.09,28.67,1,0,2,0.01
2013-1-31,0,0,0,53,53,53,0,0,100,29.62,29.09,0,0,0,0.01
2013-2-1,0,0,0,53,53,53,0,0,100,29.77,29.55,0,0,0,0.01
2013-2-2,0,0,0,53,53,53,0,0,100,29.54,29.41,0,0,0,0.01
2013-2-3,0,0,0,53,53,53,0,0,100,29.47,29.36,0,0,0,0.01
2013-2-4,0,0,0,53,53,53,0,0,100,29.41,29.26,0,0,0,0.01
2013-2-5,0,0,0,53,53,53,0,0,100,29.50,29.21,0,0,0,0.01
2013-2-6,0,0,0,53,53,53,0,0,100,29.62,29.47,0,0,0,0.01
2013-2-7,0,0,0,53,53,53,0,0,100,29.49,29.28,0,0,0,0.01
2013-2-8,0,0,0,53,53,53,0,0,100,29.80,29.43,0,0,0,0.01
2013-2-9,33,12,0,53,37,8,57,20,35,29.92,29.61,7,1,12,0.01
2013-2-10,45,38,28,37,25,-19,76,61,10,29.79,29.18,16,7,29,0.31
2013-2-11,40,32,27,18,7,1,45,34,29,29.79,29.23,21,9,34,0.02
2013-2-12,36,27,24,10,3,-4,51,37,18,29.83,29.63,8,3,16,0.00
2013-2-13,46,33,19,18,12,5,57,43,19,29.63,29.44,7,2,13,0.00
2013-2-14,45,36,33,18,10,-11,51,36,10,29.72,29.36,100,4,100,0.02
2013-2-15,33,26,16,11,-10,-22,48,22,10,29.93,29.72,8,3,17,0.00
2013-2-16,25,15,6,-13,-20,-30,35,21,10,29.93,29.85,8,2,17,0.00
2013-2-17,33,20,3,4,-13,-29,40,25,10,29.92,29.65,10,3,15,0.00
2013-2-18,54,37,23,37,14,-1,69,42,19,29.65,29.18,12,6,21,0.45
2013-2-19,22,13,6,6,-14,-23,50,29,17,29.95,29.36,8,1,19,0.00
2013-2-20,25,12,3,-10,-21,-34,40,23,10,30.11,29.95,7,2,13,0.00
2013-2-21,28,20,7,13,2,-12,61,45,38,30.11,29.66,7,2,15,0.00
2013-2-22,35,27,23,18,13,9,63,54,45,29.67,29.52,11,4,20,0.04
2013-2-23,34,24,14,9,-1,-16,49,35,11,29.70,29.63,9,3,15,0.04
2013-2-24,44,24,7,4,-4,-14,53,34,10,29.86,29.70,4,1,6,0.00
2013-2-25,48,31,15,13,3,-10,52,34,10,29.88,29.67,5,1,8,0.01
2013-2-26,35,33,31,23,17,9,71,53,33,29.67,29.28,9,3,21,0.00
2013-2-27,37,32,28,23,20,14,73,62,40,29.49,29.29,6,1,13,0.14
2013-2-28,39,33,26,22,14,5,66,46,25,29.83,29.49,5,2,14,0.07
2013-3-1,32,25,21,6,2,-4,46,36,26,29.95,29.80,6,2,14,0.00
2013-3-2,34,20,1,-3,-14,-25,37,23,10,29.96,29.89,6,2,12,0.00
2013-3-3,39,17,-3,-5,-18,-28,39,23,10,29.90,29.80,4,0,7,0.00
2013-3-4,34,26,12,9,-1,-13,41,31,19,29.84,29.68,8,2,13,0.05
2013-3-5,38,31,25,23,16,8,63,54,40,29.79,29.54,4,0,7,0.13
2013-3-6,36,29,24,14,7,0,63,40,22,30.04,29.78,7,2,16,0.01
2013-3-7,45,29,12,8,-1,-13,47,31,10,30.14,30.03,5,1,8,0.08
2013-3-8,42,26,7,9,1,-11,47,35,17,30.18,29.98,8,2,13,0.00
2013-3-9,41,36,30,22,16,7,54,44,36,29.99,29.52,11,6,17,0.06
2013-3-10,51,41,38,41,32,20,81,71,46,29.54,29.28,9,3,15,0.57
2013-3-11,40,35,31,35,27,15,82,73,51,29.54,29.30,8,2,20,0.14
2013-3-12,40,30,25,16,8,-2,59,40,18,29.78,29.54,11,3,21,0.00
2013-3-13,38,27,21,3,-9,-23,40,22,10,30.06,29.78,11,3,20,0.00
2013-3-14,38,28,15,19,7,-4,59,43,25,30.06,29.79,9,2,13,0.02
2013-3-15,43,34,26,24,19,13,68,55,34,29.80,29.46,5,1,11,0.02
2013-3-16,37,31,29,24,13,0,70,48,23,29.86,29.45,6,1,14,0.00
2013-3-17,40,30,22,8,1,-6,40,28,16,29.93,29.69,6,2,12,0.00
2013-3-18,38,29,19,20,9,-12,57,43,24,29.70,29.36,75,4,75,0.08
2013-3-19,34,23,14,-7,-14,-24,32,19,10,29.85,29.54,14,7,30,0.00
2013-3-20,27,18,10,-14,-23,-33,25,15,10,29.87,29.76,12,5,22,0.00
2013-3-21,37,21,10,-6,-15,-27,36,21,10,29.80,29.74,5,2,12,0.00
2013-3-22,45,28,11,7,-8,-18,47,24,10,29.79,29.73,4,1,8,0.00
2013-3-23,49,32,19,11,-4,-15,47,23,10,29.86,29.74,3,1,7,0.00
2013-3-24,36,32,28,17,10,2,61,41,26,29.78,29.43,7,2,15,0.01
2013-3-25,38,32,26,11,5,-2,48,32,21,29.83,29.49,8,3,15,0.00
2013-3-26,46,37,31,6,-4,-12,34,19,10,30.00,29.83,6,2,10,0.00
2013-3-27,51,38,0,13,-4,-16,46,18,10,30.06,29.72,4,1,8,42.86
2013-3-28,57,37,30,3,-1,-11,27,21,10,29.96,29.86,6,0,11,0.00
2013-3-29,62,44,26,11,3,-9,46,22,10,29.92,29.81,4,0,8,0.00
2013-3-30,58,45,30,23,10,0,35,25,10,29.83,29.44,12,4,19,0.00
2013-3-31,59,46,38,36,15,-4,72,36,10,29.52,29.34,11,5,24,0.01
2013-4-1,44,35,27,3,-10,-18,28,15,10,29.80,29.52,11,4,21,0.00
2013-4-2,47,35,0,4,-11,-19,42,14,10,30.01,29.80,8,2,14,42.85
2013-4-3,52,38,18,4,-7,-19,43,16,10,30.14,29.98,4,1,7,0.00
2013-4-4,64,44,24,15,0,-9,35,17,10,29.99,29.67,8,2,15,0.00
2013-4-5,61,46,31,15,3,-7,39,19,10,29.92,29.72,118,2,118,0.00
2013-4-6,67,54,35,39,7,-4,60,18,10,29.80,29.30,17,6,27,0.19
2013-4-7,64,53,41,39,17,6,59,30,10,29.64,29.33,7,2,15,0.00
2013-4-8,64,40,0,52,15,6,99,38,10,30.54,29.20,9,1,14,42.66
2013-4-9,32,32,32,13,13,13,46,46,46,30.09,30.09,2,2,3,42.66
2013-4-10,32,32,32,13,13,13,46,46,46,30.09,30.09,2,2,3,42.66
2013-4-11,32,32,32,13,13,13,46,46,46,30.09,30.09,2,2,3,42.66
2013-4-12,32,32,32,13,13,13,46,46,46,30.09,30.09,2,2,3,42.66
2013-4-13,32,12,0,13,13,13,46,17,46,30.22,30.09,2,1,3,42.66
2013-4-14,0,0,0,13,13,13,0,0,100,30.22,29.83,0,0,0,42.66
2013-4-15,0,0,0,13,13,13,0,0,100,30.24,29.86,0,0,0,42.66
2013-4-16,55,20,0,23,14,7,55,15,14,30.41,29.83,9,1,14,0.00
2013-4-17,49,44,40,43,29,16,80,58,33,30.04,29.49,17,4,27,1.63
2013-4-18,62,51,37,56,42,17,89,75,43,29.52,29.15,18,6,29,1.65
2013-4-19,40,36,34,18,13,5,46,38,25,29.70,29.24,20,10,32,2.00
2013-4-20,52,38,28,14,1,-15,53,25,10,30.14,29.70,9,2,14,0.00
2013-4-21,56,43,32,18,5,-8,36,22,10,30.24,30.03,15,7,24,0.00
2013-4-22,68,53,38,22,14,2,45,24,10,30.04,29.76,13,5,19,0.00
2013-4-23,55,44,37,41,31,20,68,61,25,29.80,29.67,11,3,19,0.51
2013-4-24,54,43,35,22,7,-8,51,26,10,29.85,29.70,11,5,17,0.01
2013-4-25,56,44,35,27,8,-10,59,27,10,30.06,29.80,12,4,22,0.06
2013-4-26,69,53,36,29,14,4,44,23,10,30.06,29.96,14,5,21,0.00
2013-4-27,68,56,39,37,24,6,67,34,10,30.03,29.74,10,2,14,0.00
2013-4-28,75,60,51,41,34,17,62,40,12,29.75,29.57,4,1,7,0.00
2013-4-29,76,64,50,45,37,20,70,42,13,29.66,29.47,17,6,24,0.00
2013-4-30,88,73,60,50,35,17,65,32,10,29.68,29.49,15,7,22,0.02
2013-5-1,86,74,60,45,31,16,51,25,10,29.87,29.67,11,4,17,0.00
2013-5-2,65,53,43,40,31,19,63,45,23,30.00,29.86,10,4,16,0.25
2013-5-3,54,46,40,44,36,29,71,67,63,29.90,29.67,9,3,18,0.34
2013-5-4,78,60,50,45,39,20,71,50,13,29.79,29.67,8,2,16,0.01
2013-5-5,82,64,48,46,30,10,81,38,10,29.80,29.70,8,2,15,0.00
2013-5-6,85,65,48,36,22,4,58,25,10,29.81,29.72,8,2,13,0.00
2013-5-7,90,68,46,33,21,6,50,20,10,29.81,29.71,4,1,8,0.00
2013-5-8,90,69,47,39,24,10,57,22,10,29.79,29.70,4,1,8,0.00
2013-5-9,76,63,52,56,43,24,80,51,22,29.72,29.55,11,2,20,0.38
2013-5-10,53,49,45,45,37,33,78,64,49,29.74,29.53,9,2,14,0.05
2013-5-11,60,50,42,42,19,-5,76,39,10,29.83,29.60,18,5,29,0.54
2013-5-12,60,47,37,10,3,-8,32,17,10,29.89,29.81,13,4,23,0.00
2013-5-13,72,55,30,26,9,-1,56,20,10,29.93,29.71,8,2,14,0.00
2013-5-14,101,75,54,38,25,6,32,17,10,29.70,29.39,9,4,17,0.00
2013-5-15,88,77,64,30,20,12,20,12,10,29.61,29.40,9,3,17,0.01
2013-5-16,89,72,54,34,21,5,40,17,10,29.72,29.60,6,1,11,0.00
2013-5-17,86,69,59,33,22,7,34,18,10,29.78,29.68,7,2,16,0.00
2013-5-18,85,71,56,51,40,29,61,34,15,29.79,29.67,6,2,11,0.00
2013-5-19,92,76,62,54,44,26,66,38,10,29.70,29.47,16,3,27,0.31
2013-5-20,88,75,65,59,42,20,74,36,10,29.55,29.39,10,3,21,0.46
2013-5-21,83,69,62,57,47,23,75,50,11,29.45,29.40,7,2,14,0.01
2013-5-22,74,66,61,57,45,29,70,50,19,29.52,29.38,7,2,14,0.17
2013-5-23,70,57,42,48,36,9,75,50,10,30.04,29.51,7,2,18,0.28
2013-5-24,74,54,34,29,14,1,61,26,10,30.20,30.03,4,1,8,0.00
2013-5-25,59,52,45,28,17,1,46,27,10,30.15,30.02,4,1,7,0.06
2013-5-26,62,54,43,45,31,15,66,43,17,30.03,29.85,5,1,10,0.14
2013-5-27,66,60,54,52,49,44,74,66,57,29.86,29.59,5,2,10,0.14
2013-5-28,82,69,58,62,57,49,85,67,48,29.61,29.44,8,2,17,0.08
2013-5-29,90,74,62,57,53,42,74,51,21,29.69,29.49,8,2,14,0.02
2013-5-30,86,74,62,58,54,43,80,52,26,29.66,29.48,12,4,28,0.65
2013-5-31,76,69,62,62,56,46,84,64,39,29.59,29.44,8,2,14,0.08
2013-6-1,79,69,64,62,52,37,79,56,25,29.49,29.40,10,2,17,0.12
2013-6-2,64,58,46,51,35,25,71,44,26,29.79,29.49,8,2,17,0.00
2013-6-3,80,60,42,48,27,9,76,37,10,29.87,29.76,4,0,8,0.00
2013-6-4,77,64,49,38,24,8,62,27,10,29.91,29.79,4,1,8,0.00
2013-6-5,70,60,54,50,39,24,67,47,25,29.86,29.68,4,1,11,0.33
2013-6-6,73,60,54,50,42,37,73,54,30,29.70,29.62,4,1,12,0.65
2013-6-7,81,64,53,39,30,8,54,32,10,29.71,29.65,4,1,11,0.00
2013-6-8,82,66,44,46,22,9,68,25,10,29.74,29.67,3,0,5,0.00
2013-6-9,84,70,59,53,33,6,67,30,10,29.74,29.54,8,2,15,0.21
2013-6-10,84,71,59,60,48,24,79,50,17,29.62,29.50,7,1,14,0.02
2013-6-11,92,76,58,64,46,24,77,41,10,29.68,29.55,6,1,12,0.00
2013-6-12,93,74,65,62,56,50,81,55,27,29.67,29.35,7,1,13,1.55
2013-6-13,89,72,61,60,40,19,84,41,10,29.79,29.40,8,2,14,0.01
2013-6-14,84,68,52,49,37,19,66,35,10,29.90,29.74,4,1,8,0.00
2013-6-15,87,71,61,59,51,37,69,49,27,29.80,29.59,14,1,23,0.15
2013-6-16,89,76,66,57,46,22,65,40,10,29.69,29.62,10,2,24,0.00
2013-6-17,91,77,58,60,35,21,73,29,10,29.70,29.60,7,1,14,0.00
2013-6-18,82,69,57,43,34,18,53,31,10,29.83,29.66,4,1,14,0.00
2013-6-19,90,70,51,40,29,18,47,26,10,29.89,29.79,8,1,13,0.00
2013-6-20,96,77,58,46,34,24,44,24,10,29.89,29.78,4,1,8,0.00
2013-6-21,80,73,66,62,53,42,81,52,31,29.94,29.67,14,2,27,1.15
2013-6-22,82,74,65,66,60,51,84,61,40,29.89,29.69,11,2,24,1.32
2013-6-23,89,74,67,60,57,49,75,57,29,29.80,29.62,8,1,14,0.05
2013-6-24,86,71,66,64,59,48,84,68,34,29.83,29.63,11,1,20,0.89
2013-6-25,87,75,66,67,61,55,77,62,42,29.72,29.55,8,1,14,0.02
2013-6-26,86,75,70,68,61,54,82,63,36,29.57,29.47,7,1,11,0.00
2013-6-27,90,80,68,67,52,23,82,44,10,29.57,29.47,13,3,19,0.00
2013-6-28,82,74,65,55,43,28,66,36,14,29.51,29.39,11,3,19,0.00
2013-6-29,72,66,60,59,54,43,78,66,38,29.55,29.36,5,1,14,0.00
2013-6-30,85,70,60,48,38,17,63,36,10,29.76,29.55,6,1,14,0.18
2013-7-1,85,69,55,40,28,15,49,26,10,29.84,29.74,6,1,19,0.00
2013-7-2,84,67,55,43,31,13,59,32,10,29.85,29.79,6,1,11,0.00
2013-7-3,83,65,54,52,45,38,69,51,22,29.83,29.77,3,0,6,0.00
2013-7-4,90,73,55,57,45,24,79,45,10,29.84,29.76,4,1,10,0.00
2013-7-5,90,75,59,54,44,24,71,39,10,29.84,29.75,4,1,8,0.00
2013-7-6,93,75,60,59,49,28,73,45,10,29.81,29.72,4,1,7,0.00
2013-7-7,94,80,69,61,56,47,73,48,21,29.76,29.69,5,1,9,0.00
2013-7-8,91,80,71,65,60,50,75,53,33,29.76,29.68,9,2,19,0.40
2013-7-9,90,80,73,68,64,60,75,60,40,29.75,29.62,8,1,16,0.11
2013-7-10,86,78,62,71,52,24,82,47,11,29.77,29.60,6,2,13,0.00
2013-7-11,92,73,60,55,38,19,69,37,10,29.87,29.77,3,0,8,0.00
2013-7-12,94,73,54,49,34,16,65,33,10,29.92,29.82,3,0,5,0.00
2013-7-13,93,74,57,53,40,23,67,35,10,29.91,29.83,4,1,8,0.00
2013-7-14,95,79,63,59,50,35,69,41,13,29.96,29.89,3,1,6,0.00
2013-7-15,100,82,68,65,56,34,70,46,11,30.02,29.95,3,0,6,0.00
2013-7-16,96,84,73,69,61,50,78,50,21,30.06,29.99,3,0,8,0.00
2013-7-17,97,84,70,71,59,45,81,48,19,30.08,29.93,5,1,10,0.00
2013-7-18,96,84,71,72,60,44,81,48,17,29.96,29.71,6,1,14,0.00
2013-7-19,96,84,72,64,56,42,67,41,16,29.71,29.52,11,3,19,0.09
2013-7-20,93,78,66,61,47,27,71,39,10,29.70,29.58,4,1,8,0.00
2013-7-21,88,74,63,59,53,42,74,50,20,29.72,29.60,5,1,11,0.00
2013-7-22,92,77,62,64,52,41,78,47,18,29.65,29.49,9,1,17,0.08
2013-7-23,83,71,58,57,43,20,73,43,10,29.73,29.46,8,2,14,0.04
2013-7-24,85,66,52,54,35,16,75,38,10,29.83,29.73,4,0,8,0.00
2013-7-25,85,69,51,54,39,24,75,39,12,29.86,29.77,6,1,10,0.00
2013-7-26,81,68,60,59,51,35,75,56,23,29.77,29.62,7,2,11,0.20
2013-7-27,68,59,52,46,35,20,67,43,17,29.70,29.65,8,2,15,0.00
2013-7-28,75,60,52,46,33,13,68,39,10,29.79,29.63,8,2,14,0.04
2013-7-29,84,66,50,48,36,19,67,39,10,29.91,29.79,6,1,12,0.00
2013-7-30,69,64,58,57,51,44,79,63,47,29.92,29.80,3,1,7,0.09
2013-7-31,83,70,62,64,56,45,86,64,28,29.81,29.70,5,1,10,0.02
2013-8-1,87,70,60,62,39,15,84,42,10,29.77,29.68,9,2,18,0.00
2013-8-2,85,73,61,56,50,41,70,46,23,29.71,29.61,7,1,13,0.25
2013-8-3,86,72,59,47,34,17,59,31,10,29.88,29.71,5,1,11,0.00
2013-8-4,86,69,53,47,36,17,64,36,10,29.96,29.85,3,0,7,0.00
2013-8-5,77,66,56,56,48,43,76,53,36,29.86,29.61,8,1,17,0.27
2013-8-6,86,77,67,64,60,55,78,59,36,29.65,29.57,5,1,9,0.00
2013-8-7,92,78,64,69,55,33,84,51,13,29.72,29.54,6,1,12,0.00
2013-8-8,84,71,62,58,48,33,75,48,17,29.79,29.71,3,0,9,0.00
2013-8-9,83,70,56,59,48,37,70,48,25,29.81,29.72,7,1,16,0.00
2013-8-10,86,71,57,51,39,18,66,38,10,29.89,29.80,5,1,11,0.00
2013-8-11,84,68,52,54,46,36,73,49,18,29.89,29.77,4,0,10,0.00
2013-8-12,86,74,66,57,51,40,68,47,21,29.78,29.63,6,1,11,0.00
2013-8-13,77,64,52,48,29,10,64,34,10,29.90,29.70,5,1,11,0.00
2013-8-14,84,63,47,46,31,13,70,38,10,29.98,29.88,4,0,8,0.00
2013-8-15,80,64,51,44,34,16,63,39,10,29.93,29.85,5,1,9,0.00
2013-8-16,90,68,49,51,34,18,71,37,10,29.94,29.88,4,0,8,0.00
2013-8-17,90,68,51,46,33,18,63,34,10,30.00,29.52,3,0,7,0.00
2013-8-18,88,69,51,53,36,20,67,38,10,29.59,29.47,3,0,6,0.00
2013-8-19,87,71,54,54,44,27,70,43,13,29.50,29.40,5,1,11,0.00
2013-8-20,89,74,60,60,50,37,76,46,16,29.49,29.39,4,1,8,0.00
2013-8-21,91,78,66,60,51,35,70,44,15,29.45,29.34,6,1,13,0.00
2013-8-22,78,70,62,65,59,53,83,70,44,29.93,29.36,18,1,37,1.05
2013-8-23,89,71,58,61,41,20,83,44,10,29.93,29.85,4,0,8,0.00
2013-8-24,88,72,57,57,48,40,72,46,22,30.00,29.91,4,1,9,0.00
2013-8-25,91,77,66,60,51,42,60,42,20,29.99,29.88,5,1,13,0.00
2013-8-26,93,78,63,63,56,49,72,49,23,29.91,29.75,6,1,11,0.00
2013-8-27,96,82,72,64,57,45,71,46,19,29.76,29.60,6,1,14,0.00
2013-8-28,95,80,68,62,57,51,67,46,23,29.79,29.61,4,0,10,0.00
2013-8-29,93,76,66,67,57,42,87,57,18,29.85,29.73,3,0,5,0.00
2013-8-30,83,72,68,65,62,57,81,73,51,29.73,29.57,3,0,6,0.58
2013-8-31,85,74,67,64,59,54,79,62,37,29.62,29.54,4,0,9,0.01
2013-9-1,88,74,59,63,56,47,82,57,36,29.59,29.48,4,1,8,0.00
2013-9-2,82,68,58,54,44,12,68,45,11,29.75,29.58,5,1,11,0.00
2013-9-3,83,63,50,53,38,20,76,45,10,29.85,29.75,4,0,8,0.00
2013-9-4,90,67,50,55,41,24,77,46,10,29.89,29.79,6,1,9,0.00
2013-9-5,82,67,59,60,47,32,79,53,17,29.99,29.85,4,0,8,0.00
2013-9-6,89,72,57,54,45,37,60,40,18,29.96,29.75,4,1,8,0.00
2013-9-7,90,75,62,59,50,33,72,46,16,29.76,29.63,6,1,11,0.02
2013-9-8,81,73,67,60,57,52,71,58,38,29.77,29.67,5,1,11,0.00
2013-9-9,97,80,67,67,60,54,85,54,24,29.69,29.56,4,1,8,0.00
2013-9-10,96,83,71,56,42,26,47,28,10,29.75,29.63,10,2,18,0.00
2013-9-11,87,78,68,56,51,43,63,40,23,29.81,29.73,6,1,11,0.00
2013-9-12,80,69,57,57,37,13,75,39,10,29.85,29.74,10,2,17,0.00
2013-9-13,78,58,46,40,23,3,56,31,10,29.95,29.84,4,1,11,0.00
2013-9-14,76,56,39,40,25,9,70,37,10,29.93,29.75,4,0,10,0.00
2013-9-15,59,56,52,51,43,29,74,64,36,29.92,29.72,4,0,9,0.89
2013-9-16,75,58,44,49,33,12,74,46,10,30.11,29.92,4,1,10,0.00
2013-9-17,71,58,43,46,38,31,73,50,24,30.06,29.83,4,1,8,0.04
2013-9-18,82,68,59,62,50,41,73,53,37,29.84,29.64,4,1,8,0.27
2013-9-19,92,78,68,66,55,38,81,52,15,29.67,29.49,12,1,21,0.20
2013-9-20,72,66,56,62,48,32,79,56,24,29.60,29.50,9,2,17,0.09
2013-9-21,71,58,45,44,33,12,69,44,11,29.70,29.58,9,2,15,0.00
2013-9-22,78,55,40,44,29,10,72,44,10,29.81,29.70,3,0,5,0.00
2013-9-23,78,58,45,38,30,12,69,42,10,29.85,29.75,3,1,8,0.00
2013-9-24,80,60,47,39,31,12,65,40,10,29.77,29.65,4,1,8,0.00
2013-9-25,82,61,49,47,32,12,71,43,10,29.72,29.65,3,0,8,0.00
2013-9-26,86,62,48,49,34,14,74,43,10,29.81,29.70,3,0,6,0.00
2013-9-27,85,66,52,42,32,15,63,35,10,29.89,29.77,5,1,9,0.00
2013-9-28,84,67,53,57,41,26,69,43,13,29.79,29.62,8,2,16,0.04
2013-9-29,82,59,47,51,32,8,80,45,10,29.83,29.72,4,1,10,0.01
2013-9-30,81,60,42,42,26,10,72,36,10,29.75,29.59,4,1,11,0.00
2013-10-1,85,69,57,59,46,33,83,50,17,29.72,29.61,8,2,19,0.00
2013-10-2,87,69,54,52,32,13,72,35,10,29.83,29.71,4,1,10,0.00
2013-10-3,84,70,62,64,57,40,86,65,31,29.71,29.57,5,1,11,0.20
2013-10-4,81,70,65,62,58,51,77,65,42,29.73,29.60,8,1,14,0.04
2013-10-5,80,70,60,67,57,38,87,65,43,29.67,29.51,5,1,11,0.07
2013-10-6,60,50,42,39,24,4,66,39,11,29.55,29.45,10,2,16,0.00
2013-10-7,74,54,41,41,28,8,75,46,10,29.82,29.51,11,2,16,0.01
2013-10-8,80,59,40,45,26,8,74,38,10,29.91,29.82,7,1,13,0.00
2013-10-9,79,59,45,40,25,4,67,35,10,29.97,29.85,4,1,8,0.00
2013-10-10,81,60,42,42,29,14,71,39,10,29.91,29.77,5,1,10,0.00
2013-10-11,80,64,53,46,37,18,66,41,10,29.79,29.65,8,2,18,0.00
2013-10-12,73,62,44,51,34,6,67,40,10,29.93,29.66,9,2,18,0.04
2013-10-13,72,50,34,41,18,-2,68,35,10,30.14,29.93,7,1,12,0.00
2013-10-14,68,50,33,37,22,6,69,39,10,30.14,29.83,7,2,14,0.00
2013-10-15,70,56,46,55,36,26,78,49,34,29.83,29.49,9,3,16,0.15
2013-10-16,52,50,46,38,32,28,68,51,45,29.69,29.57,8,3,18,0.00
2013-10-17,61,48,36,40,31,10,76,56,14,29.67,29.57,8,2,16,0.22
2013-10-18,51,43,34,35,25,19,73,50,30,29.71,29.57,9,2,17,0.00
2013-10-19,55,44,36,27,20,-3,60,43,10,29.67,29.52,11,2,20,0.00
2013-10-20,62,47,31,31,24,15,69,43,17,29.60,29.46,9,1,14,0.00
2013-10-21,54,42,29,28,7,-12,43,26,10,29.72,29.54,13,4,21,0.00
2013-10-22,39,32,23,26,18,7,67,56,36,29.73,29.65,2,0,5,0.13
2013-10-23,46,37,30,23,12,-8,70,39,10,29.77,29.66,10,2,14,0.01
2013-10-24,42,36,29,17,3,-13,48,27,10,30.04,29.75,10,3,16,0.00
2013-10-25,54,39,21,17,2,-10,57,27,10,30.13,29.76,10,3,19,0.00
2013-10-26,56,45,30,13,0,-9,45,17,10,29.82,29.60,12,4,21,0.00
2013-10-27,58,40,23,22,6,-8,59,30,10,29.82,29.68,9,2,14,0.00
2013-10-28,62,42,29,26,17,5,57,38,10,30.09,29.78,7,1,14,0.00
2013-10-29,59,46,33,32,19,2,63,38,10,30.09,29.85,5,1,9,0.00
2013-10-30,59,53,47,59,48,30,99,83,53,29.85,29.48,7,2,16,0.64
2013-10-31,64,57,44,62,53,32,99,85,63,29.49,29.02,11,4,21,0.43
2013-11-1,47,44,41,36,30,27,69,58,48,29.50,29.16,11,4,19,0.02
2013-11-2,52,41,32,32,23,9,73,52,20,29.88,29.49,8,2,14,0.01
2013-11-3,54,40,24,30,15,-3,68,41,10,30.03,29.88,8,2,14,0.00
2013-11-4,59,49,40,29,21,8,49,34,14,29.95,29.78,13,4,26,0.01
2013-11-5,54,52,49,45,38,29,77,60,43,29.98,29.64,11,4,20,0.08
2013-11-6,57,45,33,50,30,5,81,58,26,29.92,29.50,14,4,23,0.45
2013-11-7,41,33,26,20,14,6,60,45,25,29.97,29.92,9,2,15,0.00
2013-11-8,50,37,24,24,11,-5,65,37,10,30.05,29.60,11,3,19,0.00
2013-11-9,59,49,40,21,11,-6,38,23,10,29.88,29.56,14,6,26,0.00
2013-11-10,52,41,32,14,6,-7,41,25,10,30.09,29.88,9,3,14,0.00
2013-11-11,46,36,20,23,11,-2,67,38,21,30.27,29.81,8,2,16,0.05
2013-11-12,34,23,16,-1,-7,-20,41,27,10,30.44,30.27,9,1,16,0.00
2013-11-13,42,29,14,-1,-10,-19,45,21,10,30.32,29.87,11,4,19,0.00
2013-11-14,52,40,30,-3,-9,-18,20,12,10,29.88,29.64,11,4,21,0.00
2013-11-15,55,41,30,23,4,-13,53,25,10,29.70,29.63,8,2,14,0.00
2013-11-16,60,50,35,47,40,19,80,68,47,29.64,29.27,15,7,27,0.14
2013-11-17,70,56,41,56,42,22,87,62,42,29.51,28.88,17,7,27,0.71
2013-11-18,45,37,29,22,8,-11,48,31,10,29.99,29.51,16,6,28,0.05
2013-11-19,45,32,19,21,7,-8,61,38,11,30.09,29.96,6,2,10,0.00
2013-11-20,41,36,30,28,18,8,65,49,27,29.98,29.79,12,5,17,0.19
2013-11-21,47,42,38,31,30,28,67,60,51,29.95,29.81,6,1,9,0.00
2013-11-22,41,33,22,29,14,3,65,47,23,30.21,29.94,11,4,18,0.04
2013-11-23,25,20,12,6,-16,-30,48,22,10,30.44,30.18,12,6,24,0.01
2013-11-24,30,18,6,-6,-20,-28,42,19,10,30.44,30.08,7,3,13,0.00
2013-11-25,31,27,19,15,0,-24,59,35,10,30.08,29.79,10,4,21,0.00
2013-11-26,34,26,13,15,0,-26,55,34,11,29.94,29.76,14,4,24,0.00
2013-11-27,30,19,10,-6,-16,-24,28,21,10,30.00,29.92,12,4,20,0.00
2013-11-28,36,24,13,-4,-11,-20,40,22,10,30.23,29.88,8,2,14,0.00
2013-11-29,36,24,8,9,-8,-19,50,27,10,30.34,30.09,8,2,14,0.00
2013-11-30,52,36,25,13,4,-6,48,29,10,30.09,29.77,8,2,15,0.00
2013-12-1,50,34,24,18,7,-9,59,37,10,29.87,29.70,6,1,11,0.00
2013-12-2,42,36,31,25,15,6,65,44,23,29.69,29.44,8,2,12,0.06
2013-12-3,47,41,36,46,36,25,96,82,65,29.44,29.37,7,2,11,0.04
2013-12-4,52,46,32,52,44,20,99,93,62,29.45,29.22,14,4,29,0.08
2013-12-5,32,22,17,20,-5,-15,64,32,18,30.00,29.44,15,7,25,0.02
2013-12-6,20,14,8,-12,-18,-29,30,22,10,30.28,29.97,8,4,15,0.00
2013-12-7,22,10,4,-16,-24,-35,32,20,10,30.42,30.27,7,2,11,0.00
2013-12-8,23,18,10,10,-5,-25,59,38,16,30.31,29.67,8,2,14,0.00
2013-12-9,22,11,-8,9,-17,-40,59,30,10,29.95,29.67,14,5,27,0.00
2013-12-10,22,10,-9,-11,-27,-36,31,17,10,30.02,29.72,17,5,27,0.00
2013-12-11,20,9,-10,-2,-23,-44,46,24,10,30.29,29.98,11,3,18,0.00
2013-12-12,21,7,-10,-10,-28,-43,40,19,10,30.26,29.92,10,2,18,0.00
2013-12-13,33,21,7,14,-6,-20,54,32,10,29.93,29.80,7,1,13,0.00
2013-12-14,31,26,18,18,10,-1,68,51,38,29.81,29.66,9,3,15,0.00
2013-12-15,19,12,9,2,-21,-33,46,22,10,29.85,29.68,12,4,21,0.00
2013-12-16,17,13,6,1,-17,-34,51,27,10,29.86,29.73,6,1,9,0.00
2013-12-17,39,25,16,12,-1,-18,59,36,10,29.85,29.68,13,5,24,0.02
2013-12-18,34,22,8,9,-8,-21,45,27,10,29.87,29.54,14,3,21,0.00
2013-12-19,38,30,21,25,14,3,72,52,32,29.64,29.51,6,1,14,0.17
2013-12-20,33,30,25,27,22,17,78,72,67,29.56,29.47,4,0,13,0.15
2013-12-21,32,28,25,28,20,17,83,73,63,29.60,29.33,0,0,0,0.00
2013-12-22,32,27,22,28,19,11,82,71,62,29.86,29.33,0,0,0,0.00
2013-12-23,22,4,-8,11,-21,-36,63,31,13,30.19,29.86,0,0,0,0.00
2013-12-24,17,1,-13,-4,-31,-45,43,21,10,30.28,30.03,0,0,0,0.00
2013-12-25,25,22,17,11,3,-9,58,43,30,30.03,29.83,0,0,0,0.00
2013-12-26,34,23,11,14,0,-13,54,36,20,29.99,29.85,0,0,0,0.00
2013-12-27,38,29,12,15,8,-4,60,41,23,30.00,29.80,8,1,15,0.01
2013-12-28,46,37,28,19,12,6,58,36,19,29.82,29.52,8,2,13,0.14
2013-12-29,38,24,4,18,0,-26,54,35,22,29.95,29.50,14,6,23,0.00
2013-12-30,8,1,-8,-20,-33,-44,31,19,10,30.05,29.91,8,1,11,0.00
2013-12-31,10,3,-10,-14,-24,-36,33,27,15,30.06,29.91,5,1,11,0.00
2014-1-1,17,11,7,0,-10,-18,48,38,29,30.00,29.91,9,4,16,0.00
2014-1-2,16,8,-10,-11,-22,-38,38,24,10,30.15,29.89,11,5,19,0.00